Time;durP1;ratioP1;P1;durP2;ratioP2;P2;SDS_P1;SDS_P2;PMS_P1;PMS_P2;Temp;Humidity;BMP_temperature;BMP_pressure;BME280_temperature;BME280_humidity;BME280_pressure;Samples;Min_cycle;Max_cycle;Signal;HPM_P1;HPM_P2
2021/08/10 00:01:39;;;;;;;6.75;3.00;;;;;;;21.33;60.78;101170.78;5055393;28;20056;-67
2021/08/10 00:04:06;;;;;;;7.38;3.00;;;;;;;21.33;60.85;101170.78;5072815;28;20056;-67
2021/08/10 00:06:34;;;;;;;8.07;3.13;;;;;;;21.30;60.21;101175.16;5072860;28;20092;-67
2021/08/10 00:09:01;;;;;;;8.82;2.90;;;;;;;21.36;60.30;101168.06;5055174;28;20408;-66
2021/08/10 00:11:28;;;;;;;7.50;2.95;;;;;;;21.25;60.58;101162.25;5038893;28;20063;-67
2021/08/10 00:13:55;;;;;;;9.38;3.53;;;;;;;21.14;61.13;101150.09;5068942;28;20044;-66
2021/08/10 00:16:23;;;;;;;9.18;2.97;;;;;;;21.15;60.94;101157.28;5093081;28;20051;-66
2021/08/10 00:18:50;;;;;;;6.80;2.90;;;;;;;21.18;60.72;101158.56;5093081;28;20052;-64
2021/08/10 00:21:17;;;;;;;8.02;2.83;;;;;;;21.30;60.21;101158.34;5057237;28;20048;-65
2021/08/10 00:23:44;;;;;;;8.85;2.95;;;;;;;21.23;60.74;101153.41;5086787;28;20047;-65
2021/08/10 00:26:13;;;;;;;7.40;3.05;;;;;;;21.19;60.45;101152.56;5091666;28;20048;-66
2021/08/10 00:28:40;;;;;;;7.20;3.10;;;;;;;21.20;60.66;101151.38;5090950;28;20048;-66
2021/08/10 00:31:07;;;;;;;8.52;3.08;;;;;;;21.29;60.74;101158.75;5093448;28;20043;-67
2021/08/10 00:33:35;;;;;;;7.65;3.00;;;;;;;21.31;60.24;101167.56;5096428;28;20056;-63
2021/08/10 00:36:02;;;;;;;11.00;3.75;;;;;;;21.36;60.70;101156.84;5078209;28;20078;-63
2021/08/10 00:38:29;;;;;;;9.77;3.10;;;;;;;21.28;60.39;101143.91;5061976;28;20052;-63
2021/08/10 00:40:58;;;;;;;7.93;3.05;;;;;;;21.35;60.44;101146.81;5078405;28;20048;-63
2021/08/10 00:43:40;;;;;;;7.05;3.25;;;;;;;21.37;60.23;101147.25;5041443;28;20059;-62
2021/08/10 00:46:18;;;;;;;10.77;3.10;;;;;;;21.33;60.14;101151.19;5028433;28;20079;-66
2021/08/10 00:48:47;;;;;;;9.13;3.88;;;;;;;21.28;60.61;101149.50;5058407;28;20135;-63
2021/08/10 00:51:18;;;;;;;8.23;3.00;;;;;;;21.21;60.45;101155.81;5058130;28;20053;-63
2021/08/10 00:53:50;;;;;;;7.30;3.55;;;;;;;21.14;60.56;101160.47;5057872;28;20052;-63
2021/08/10 00:56:19;;;;;;;7.63;2.70;;;;;;;21.14;60.96;101161.28;5041541;28;20499;-63
2021/08/10 00:58:49;;;;;;;7.70;3.47;;;;;;;21.19;60.95;101166.59;5057670;28;20056;-63
2021/08/10 01:01:17;;;;;;;6.07;3.05;;;;;;;21.17;60.91;101174.53;5075590;28;20060;-63
2021/08/10 01:03:45;;;;;;;7.80;2.70;;;;;;;21.17;61.01;101177.34;5057544;28;20048;-65
2021/08/10 01:06:17;;;;;;;7.85;2.85;;;;;;;21.26;61.04;101185.50;5075512;28;20071;-63
2021/08/10 01:09:08;;;;;;;7.78;3.75;;;;;;;21.34;61.56;101192.84;5041432;28;20057;-64
2021/08/10 01:12:02;;;;;;;9.88;3.00;;;;;;;21.30;62.18;101186.38;5057734;28;20499;-67
2021/08/10 01:14:32;;;;;;;8.77;3.13;;;;;;;21.12;63.03;101188.88;5076479;28;20056;-65
2021/08/10 01:17:08;;;;;;;11.88;3.80;;;;;;;21.05;63.39;101199.13;5061011;28;20048;-66
2021/08/10 01:19:54;;;;;;;11.63;3.50;;;;;;;20.93;64.35;101202.88;5061480;28;20044;-66
2021/08/10 01:22:22;;;;;;;7.63;3.90;;;;;;;20.83;64.94;101202.69;5077231;28;20419;-66
2021/08/10 01:25:12;;;;;;;8.65;3.75;;;;;;;20.76;66.14;101208.97;5061081;28;20059;-66
2021/08/10 01:28:07;;;;;;;8.32;3.60;;;;;;;20.69;66.90;101199.59;5059797;28;20044;-66
2021/08/10 01:31:07;;;;;;;9.65;4.25;;;;;;;20.64;67.06;101188.72;5076545;28;20389;-66
2021/08/10 01:33:46;;;;;;;12.40;4.53;;;;;;;20.59;67.37;101183.41;5077292;28;20406;-65
2021/08/10 01:36:16;;;;;;;6.95;3.38;;;;;;;20.56;67.87;101178.53;5060664;28;20044;-66
2021/08/10 01:38:51;;;;;;;8.98;4.10;;;;;;;20.64;67.81;101183.13;5061243;28;20056;-66
2021/08/10 01:41:20;;;;;;;8.63;3.60;;;;;;;20.58;68.52;101177.00;5060712;28;20059;-66
2021/08/10 01:43:49;;;;;;;9.77;3.97;;;;;;;20.76;68.20;101177.34;5075719;28;20052;-66
2021/08/10 01:46:24;;;;;;;9.93;3.70;;;;;;;20.64;68.56;101178.31;5061169;28;20068;-67
2021/08/10 01:48:54;;;;;;;8.30;3.35;;;;;;;20.51;69.01;101178.84;5077192;28;20062;-66
2021/08/10 01:51:24;;;;;;;6.95;3.42;;;;;;;20.64;68.63;101181.09;5060540;28;20047;-66
2021/08/10 01:53:54;;;;;;;7.18;3.67;;;;;;;20.46;69.82;101188.34;5060207;28;20059;-66
2021/08/10 01:56:22;;;;;;;7.55;4.35;;;;;;;20.35;70.26;101181.72;5060454;28;20063;-66
2021/08/10 01:58:50;;;;;;;9.50;4.00;;;;;;;20.47;69.96;101187.16;5076571;28;20071;-66
2021/08/10 02:01:18;;;;;;;11.43;4.68;;;;;;;20.02;72.01;101198.13;5076892;28;20126;-67
2021/08/10 02:03:46;;;;;;;9.60;4.00;;;;;;;20.11;72.25;101201.53;5061291;28;20059;-66
2021/08/10 02:06:15;;;;;;;11.40;4.07;;;;;;;20.10;72.28;101200.72;5039839;28;20059;-66
2021/08/10 02:08:48;;;;;;;9.68;4.13;;;;;;;19.73;73.82;101193.06;5056729;28;20049;-65
2021/08/10 02:11:16;;;;;;;;;;;;;;;19.66;74.04;101196.50;5057686;28;20045;-65
2021/08/10 02:13:45;;;;;;;11.18;4.13;;;;;;;19.86;73.32;101202.94;5068601;28;19955;-66
2021/08/10 02:16:13;;;;;;;9.50;3.87;;;;;;;19.77;74.23;101194.75;5076208;28;20429;-65
2021/08/10 02:18:46;;;;;;;10.40;4.10;;;;;;;19.96;73.39;101194.81;5077054;28;20051;-66
2021/08/10 02:21:44;;;;;;;10.20;3.90;;;;;;;19.96;73.46;101183.63;5076459;28;20058;-66
2021/08/10 02:24:22;;;;;;;9.52;3.60;;;;;;;19.94;73.98;101185.19;5059684;28;20048;-65
2021/08/10 02:27:03;;;;;;;9.80;3.92;;;;;;;20.12;73.09;101177.97;5060159;28;20058;-65
2021/08/10 02:29:35;;;;;;;10.98;4.32;;;;;;;20.24;72.80;101179.88;5076321;28;20052;-66
2021/08/10 02:32:04;;;;;;;10.75;4.32;;;;;;;20.21;72.96;101178.59;5059728;28;20056;-65
2021/08/10 02:34:37;;;;;;;11.07;4.50;;;;;;;20.25;72.46;101189.88;5059748;28;20052;-66
2021/08/10 02:37:05;;;;;;;12.07;4.07;;;;;;;20.15;73.47;101186.44;5058991;28;20062;-66
2021/08/10 02:39:34;;;;;;;8.40;4.47;;;;;;;19.65;75.43;101186.50;5042515;28;20051;-66
2021/08/10 02:42:02;;;;;;;7.57;3.97;;;;;;;20.02;73.97;101182.19;5059370;28;20506;-66
2021/08/10 02:44:31;;;;;;;10.88;4.40;;;;;;;20.10;73.83;101175.53;5075935;28;20162;-65
2021/08/10 02:47:02;;;;;;;8.70;4.18;;;;;;;20.24;73.20;101179.88;5052586;28;20063;-66
2021/08/10 02:49:29;;;;;;;9.98;4.72;;;;;;;19.62;75.46;101184.44;5056023;28;20068;-66
2021/08/10 02:51:56;;;;;;;8.32;4.10;;;;;;;19.88;74.77;101183.81;5056102;28;20063;-63
2021/08/10 02:54:26;;;;;;;10.00;4.28;;;;;;;19.88;75.24;101181.03;5055927;28;20049;-62
2021/08/10 02:56:56;;;;;;;9.52;4.22;;;;;;;19.93;74.64;101183.53;5055441;28;20052;-62
2021/08/10 02:59:33;;;;;;;8.95;3.97;;;;;;;19.94;75.00;101174.00;5039405;28;20045;-62
2021/08/10 03:02:08;;;;;;;11.60;4.55;;;;;;;19.98;74.92;101184.06;5055957;28;20052;-62
2021/08/10 03:04:39;;;;;;;9.13;3.65;;;;;;;20.00;74.67;101173.34;5055637;28;20058;-62
2021/08/10 03:07:06;;;;;;;8.60;4.20;;;;;;;19.96;74.79;101174.44;5015795;28;20084;-63
2021/08/10 03:09:34;;;;;;;9.55;3.80;;;;;;;19.97;75.44;101174.06;5032587;28;20413;-63
2021/08/10 03:12:03;;;;;;;13.55;4.30;;;;;;;20.03;75.08;101171.81;5032383;28;20057;-64
2021/08/10 03:14:31;;;;;;;7.88;4.47;;;;;;;20.16;74.35;101173.31;5015926;28;20049;-62
2021/08/10 03:17:00;;;;;;;8.07;4.00;;;;;;;20.26;73.92;101181.13;5032025;28;20060;-62
2021/08/10 03:19:27;;;;;;;8.73;4.40;;;;;;;20.21;73.87;101181.41;5015896;28;20053;-64
2021/08/10 03:21:55;;;;;;;9.10;4.32;;;;;;;20.07;74.66;101190.28;5032086;28;20050;-63
2021/08/10 03:24:24;;;;;;;10.00;4.22;;;;;;;20.10;74.85;101183.16;5015183;28;20073;-63
2021/08/10 03:26:52;;;;;;;9.93;4.22;;;;;;;20.13;74.90;101180.44;4998415;28;20045;-63
2021/08/10 03:29:21;;;;;;;8.73;4.00;;;;;;;20.17;74.47;101176.94;5015687;28;20056;-63
2021/08/10 03:31:49;;;;;;;11.13;4.47;;;;;;;20.21;74.31;101173.00;5015797;28;20053;-63
2021/08/10 03:34:18;;;;;;;11.38;4.50;;;;;;;20.21;74.23;101161.81;5031762;28;20381;-63
2021/08/10 03:36:48;;;;;;;11.07;4.30;;;;;;;20.19;74.77;101160.59;5015750;28;20057;-64
2021/08/10 03:39:16;;;;;;;7.73;3.70;;;;;;;20.17;74.69;101162.94;5015888;28;20045;-63
2021/08/10 03:41:45;;;;;;;8.23;3.83;;;;;;;20.20;74.43;101157.41;5015304;28;20404;-63
2021/08/10 03:44:13;;;;;;;9.48;4.30;;;;;;;20.05;75.35;101153.47;5015390;28;20045;-63
2021/08/10 03:46:41;;;;;;;9.02;4.50;;;;;;;20.10;75.13;101164.34;5032968;28;20061;-63
2021/08/10 03:49:10;;;;;;;13.27;4.05;;;;;;;20.25;74.40;101165.50;5032951;28;20045;-63
2021/08/10 03:51:38;;;;;;;8.25;3.63;;;;;;;20.17;74.63;101164.53;5031914;28;20532;-63
2021/08/10 03:54:10;;;;;;;10.50;3.90;;;;;;;20.14;74.87;101164.44;5015468;28;20053;-63
2021/08/10 03:56:38;;;;;;;10.43;4.22;;;;;;;20.14;75.05;101173.66;5031131;28;20058;-63
2021/08/10 03:59:07;;;;;;;9.00;4.28;;;;;;;20.16;74.93;101167.72;5031116;28;20046;-64
2021/08/10 04:01:38;;;;;;;8.23;3.90;;;;;;;20.11;74.78;101174.38;5016170;28;20058;-63
2021/08/10 04:04:08;;;;;;;10.65;4.40;;;;;;;20.14;74.83;101170.84;5031520;28;20049;-62
2021/08/10 04:06:37;;;;;;;7.80;3.73;;;;;;;20.17;75.17;101177.75;5032510;28;20060;-62
2021/08/10 04:09:05;;;;;;;;;;;;;;;20.14;75.18;101179.25;5056090;28;20488;-64
2021/08/10 04:11:34;;;;;;;9.88;3.92;;;;;;;20.13;75.26;101172.03;5054806;28;19921;-62
2021/08/10 04:14:07;;;;;;;8.32;3.92;;;;;;;20.13;74.66;101186.03;5054782;28;20049;-63
2021/08/10 04:16:48;;;;;;;8.80;3.90;;;;;;;20.15;74.69;101175.25;5054821;28;20108;-62
2021/08/10 04:19:15;;;;;;;8.27;3.83;;;;;;;20.17;74.49;101177.75;5038945;28;20644;-63
2021/08/10 04:21:46;;;;;;;7.45;3.95;;;;;;;20.09;74.68;101179.53;5039705;28;20060;-63
2021/08/10 04:24:13;;;;;;;9.57;4.72;;;;;;;20.05;75.08;101167.44;5055261;28;20455;-63
2021/08/10 04:26:40;;;;;;;7.85;4.10;;;;;;;20.08;75.44;101179.91;5054570;28;20048;-63
2021/08/10 04:29:10;;;;;;;8.90;4.35;;;;;;;20.12;74.88;101191.97;5055354;28;20049;-63
2021/08/10 04:31:37;;;;;;;8.05;4.65;;;;;;;20.06;75.76;101188.66;5055155;28;20048;-62
2021/08/10 04:34:05;;;;;;;6.53;3.47;;;;;;;20.00;76.04;101192.91;5056340;28;20052;-62
2021/08/10 04:36:34;;;;;;;10.43;4.88;;;;;;;19.95;76.56;101189.59;5037845;28;20056;-63
2021/08/10 04:39:03;;;;;;;8.60;4.65;;;;;;;20.03;76.47;101194.19;5055160;28;20045;-66
2021/08/10 04:41:31;;;;;;;14.77;4.72;;;;;;;20.00;76.38;101192.09;5054982;28;20044;-64
2021/08/10 04:44:00;;;;;;;9.05;4.57;;;;;;;20.14;75.89;101198.81;5021748;28;20053;-62
2021/08/10 04:46:29;;;;;;;8.23;4.43;;;;;;;20.06;76.19;101193.44;5054800;28;20071;-63
2021/08/10 04:48:57;;;;;;;8.38;4.20;;;;;;;20.12;76.27;101197.56;5054575;28;20040;-63
2021/08/10 04:51:25;;;;;;;9.93;4.70;;;;;;;20.14;75.96;101196.03;5054646;28;20057;-63
2021/08/10 04:53:52;;;;;;;11.02;4.70;;;;;;;20.14;75.93;101198.00;5054784;28;20050;-63
2021/08/10 04:56:22;;;;;;;11.40;4.53;;;;;;;20.17;76.23;101207.69;5054785;28;20064;-63
2021/08/10 04:58:49;;;;;;;9.10;4.60;;;;;;;20.19;75.63;101199.75;5037173;28;20060;-63
2021/08/10 05:01:17;;;;;;;9.07;4.50;;;;;;;20.10;76.32;101203.50;5054778;28;20060;-63
2021/08/10 05:03:46;;;;;;;9.80;4.68;;;;;;;20.11;76.15;101207.97;5054943;28;20056;-63
2021/08/10 05:06:14;;;;;;;10.18;4.65;;;;;;;20.01;76.56;101202.91;5051369;28;20411;-63
2021/08/10 05:08:43;;;;;;;9.30;4.78;;;;;;;20.15;76.19;101203.22;5040918;28;20045;-63
2021/08/10 05:11:11;;;;;;;8.05;4.43;;;;;;;20.11;76.18;101213.53;5074707;28;20045;-63
2021/08/10 05:13:39;;;;;;;8.20;4.28;;;;;;;20.10;75.82;101209.13;5062203;28;20459;-63
2021/08/10 05:16:08;;;;;;;9.40;4.30;;;;;;;20.04;76.31;101210.59;5054602;28;20053;-63
2021/08/10 05:18:36;;;;;;;9.15;4.40;;;;;;;20.02;76.51;101201.75;5036513;28;20053;-64
2021/08/10 05:21:03;;;;;;;12.85;5.00;;;;;;;20.03;76.18;101211.75;5054363;28;20056;-64
2021/08/10 05:23:35;;;;;;;9.20;4.53;;;;;;;19.95;76.56;101209.16;5054438;28;20071;-63
2021/08/10 05:26:04;;;;;;;10.77;4.85;;;;;;;19.96;76.76;101210.78;5054432;28;20412;-67
2021/08/10 05:28:36;;;;;;;10.50;4.85;;;;;;;19.92;76.90;101219.09;5053660;28;20049;-63
2021/08/10 05:31:05;;;;;;;8.63;4.68;;;;;;;20.14;75.95;101212.81;5054506;28;20057;-63
2021/08/10 05:33:34;;;;;;;9.95;4.65;;;;;;;20.12;76.11;101217.13;5040337;28;20060;-63
2021/08/10 05:36:03;;;;;;;8.52;4.40;;;;;;;20.18;75.57;101212.91;5075306;28;20056;-64
2021/08/10 05:38:31;;;;;;;9.90;4.95;;;;;;;20.28;75.29;101212.34;5061271;28;20683;-63
2021/08/10 05:41:00;;;;;;;10.70;4.90;;;;;;;20.28;75.69;101217.94;5053816;28;20056;-63
2021/08/10 05:43:27;;;;;;;11.68;5.00;;;;;;;20.12;76.67;101211.53;5053720;28;20041;-63
2021/08/10 05:45:57;;;;;;;;;;;;;;;20.18;76.15;101212.91;5054079;28;20052;-64
2021/08/10 05:48:25;;;;;;;7.72;4.18;;;;;;;20.13;76.56;101202.81;5054639;28;19928;-63
2021/08/10 05:50:56;;;;;;;10.40;4.80;;;;;;;20.17;76.17;101203.72;5067711;28;20063;-63
2021/08/10 05:53:24;;;;;;;13.32;4.90;;;;;;;20.11;76.54;101201.53;5075279;28;20047;-63
2021/08/10 05:55:51;;;;;;;9.00;4.22;;;;;;;20.13;76.11;101205.59;5073411;28;20431;-63
2021/08/10 05:58:19;;;;;;;9.55;4.88;;;;;;;20.19;75.62;101211.72;5072949;28;20063;-63
2021/08/10 06:00:47;;;;;;;7.13;4.13;;;;;;;20.01;76.32;101218.91;5072824;28;20052;-63
2021/08/10 06:03:14;;;;;;;8.80;4.47;;;;;;;20.12;77.80;101220.75;5065421;28;20523;-63
2021/08/10 06:05:42;;;;;;;8.82;4.68;;;;;;;20.14;80.64;101210.00;5063230;28;20063;-66
2021/08/10 06:08:09;;;;;;;13.52;4.60;;;;;;;20.10;81.53;101211.13;5063151;28;21579;-64
2021/08/10 06:10:44;;;;;;;14.05;4.20;;;;;;;20.28;83.11;101225.50;5055313;28;20048;-62
2021/08/10 06:13:11;;;;;;;10.52;4.60;;;;;;;20.27;80.55;101226.69;5063461;28;20052;-63
2021/08/10 06:15:41;;;;;;;10.75;4.75;;;;;;;20.30;79.40;101220.34;5065269;28;20052;-62
2021/08/10 06:18:09;;;;;;;11.20;4.40;;;;;;;20.17;78.31;101219.69;5092783;28;20048;-63
2021/08/10 06:20:36;;;;;;;8.38;4.10;;;;;;;20.30;79.85;101221.19;5076103;28;20056;-61
2021/08/10 06:23:05;;;;;;;10.30;4.05;;;;;;;20.37;79.02;101226.94;5092105;28;20572;-61
2021/08/10 06:25:40;;;;;;;13.88;4.70;;;;;;;20.29;78.53;101224.34;5069693;28;20052;-62
2021/08/10 06:28:08;;;;;;;10.63;4.17;;;;;;;20.36;78.20;101216.09;5070928;28;20066;-63
2021/08/10 06:30:38;;;;;;;10.40;4.35;;;;;;;20.38;77.37;101219.34;5073145;28;20056;-61
2021/08/10 06:33:05;;;;;;;11.10;4.15;;;;;;;20.52;76.89;101216.84;5074741;28;20411;-62
2021/08/10 06:35:33;;;;;;;8.73;4.80;;;;;;;20.59;76.36;101217.00;5063228;28;20059;-60
2021/08/10 06:38:01;;;;;;;10.90;4.57;;;;;;;20.67;75.21;101213.16;5075415;28;20047;-61
2021/08/10 06:40:35;;;;;;;12.60;5.00;;;;;;;20.74;75.51;101210.50;5061836;28;20047;-60
2021/08/10 06:43:03;;;;;;;7.88;4.60;;;;;;;20.73;75.46;101208.91;5046593;28;20063;-61
2021/08/10 06:45:31;;;;;;;17.80;11.27;;;;;;;20.71;74.31;101209.25;5056060;28;20041;-61
2021/08/10 06:47:59;;;;;;;12.13;7.03;;;;;;;20.91;73.58;101199.66;5039108;28;20057;-60
2021/08/10 06:50:32;;;;;;;11.23;5.90;;;;;;;20.84;73.30;101213.50;5050409;28;20438;-61
2021/08/10 06:53:01;;;;;;;9.25;4.15;;;;;;;20.74;73.26;101207.69;5075884;28;20507;-61
2021/08/10 06:55:31;;;;;;;12.32;4.38;;;;;;;20.74;73.50;101213.31;5074859;28;20591;-61
2021/08/10 06:58:05;;;;;;;9.18;4.55;;;;;;;20.63;75.00;101215.06;5075176;28;20055;-61
2021/08/10 07:00:32;;;;;;;8.98;5.03;;;;;;;20.73;74.70;101209.69;5093036;28;20044;-61
2021/08/10 07:03:03;;;;;;;12.15;4.13;;;;;;;20.70;74.02;101212.41;5075777;28;20052;-60
2021/08/10 07:05:31;;;;;;;10.05;4.07;;;;;;;20.82;73.72;101212.25;5075187;28;20060;-61
2021/08/10 07:07:59;;;;;;;8.55;4.15;;;;;;;20.84;73.29;101215.50;5075703;28;20672;-60
2021/08/10 07:10:27;;;;;;;9.05;5.00;;;;;;;20.83;72.71;101211.91;5074648;28;20044;-62
2021/08/10 07:12:54;;;;;;;14.07;7.95;;;;;;;20.88;72.56;101222.81;5093599;28;20059;-60
2021/08/10 07:15:22;;;;;;;14.38;9.23;;;;;;;21.05;71.76;101219.56;5071309;28;20052;-60
2021/08/10 07:17:50;;;;;;;9.63;4.90;;;;;;;21.05;71.93;101222.34;5075681;28;20078;-61
2021/08/10 07:20:23;;;;;;;10.30;4.80;;;;;;;21.11;71.81;101220.06;5072467;28;20419;-62
2021/08/10 07:22:50;;;;;;;9.70;4.55;;;;;;;21.16;71.84;101236.56;5055581;28;20048;-61
2021/08/10 07:25:20;;;;;;;8.57;4.47;;;;;;;21.23;72.09;101233.91;5074395;28;20055;-62
2021/08/10 07:27:47;;;;;;;10.65;5.13;;;;;;;21.29;71.90;101234.41;5075216;28;20071;-61
2021/08/10 07:30:15;;;;;;;8.35;4.88;;;;;;;21.37;71.68;101233.34;5093755;28;20048;-61
2021/08/10 07:32:42;;;;;;;8.15;4.13;;;;;;;21.47;70.97;101232.69;5086435;28;20048;-61
2021/08/10 07:35:10;;;;;;;8.07;4.10;;;;;;;21.37;70.42;101228.53;5069794;28;20063;-61
2021/08/10 07:37:41;;;;;;;9.95;3.85;;;;;;;21.47;70.45;101233.50;5073609;28;20055;-61
2021/08/10 07:40:13;;;;;;;10.60;4.05;;;;;;;21.48;69.95;101231.53;5075010;28;20055;-66
2021/08/10 07:42:42;;;;;;;7.78;3.63;;;;;;;21.40;69.80;101227.78;5077881;28;20060;-62
2021/08/10 07:45:10;;;;;;;9.25;4.25;;;;;;;21.47;69.72;101233.50;5078217;28;20063;-62
2021/08/10 07:47:39;;;;;;;11.70;4.30;;;;;;;21.53;69.73;101236.81;5078957;28;20483;-60
2021/08/10 07:50:07;;;;;;;6.93;3.88;;;;;;;21.58;69.42;101223.31;5077963;28;20048;-61
2021/08/10 07:52:35;;;;;;;10.40;3.95;;;;;;;21.52;69.26;101223.97;5078063;28;20056;-60
2021/08/10 07:55:02;;;;;;;9.07;4.45;;;;;;;21.38;69.95;101235.75;5078355;28;20518;-62
2021/08/10 07:57:30;;;;;;;11.82;4.00;;;;;;;21.64;69.15;101229.38;5077673;28;20518;-61
2021/08/10 07:59:57;;;;;;;11.38;4.10;;;;;;;21.56;69.63;101234.06;5078853;28;20040;-60
2021/08/10 08:02:27;;;;;;;8.15;3.83;;;;;;;21.61;69.22;101236.56;5061030;28;20048;-61
2021/08/10 08:04:55;;;;;;;10.85;4.47;;;;;;;21.69;69.16;101237.50;5077412;28;20055;-61
2021/08/10 08:07:23;;;;;;;9.35;3.90;;;;;;;21.77;68.40;101239.22;5078272;28;20048;-62
2021/08/10 08:09:50;;;;;;;13.05;4.82;;;;;;;21.68;69.29;101239.47;5078021;28;20062;-66
2021/08/10 08:12:18;;;;;;;15.95;7.35;;;;;;;21.77;68.97;101242.03;5062432;28;20044;-66
2021/08/10 08:14:46;;;;;;;15.10;7.65;;;;;;;21.79;69.06;101240.47;5076896;28;20055;-66
2021/08/10 08:17:15;;;;;;;9.40;4.43;;;;;;;21.90;68.47;101235.84;5077146;28;20070;-66
2021/08/10 08:19:42;;;;;;;7.50;4.45;;;;;;;21.72;69.66;101236.75;5077480;28;20055;-67
2021/08/10 08:22:13;;;;;;;9.27;3.88;;;;;;;22.03;68.23;101240.06;5077268;28;20441;-65
2021/08/10 08:24:40;;;;;;;7.00;3.83;;;;;;;21.96;68.70;101236.34;5029516;28;20047;-65
2021/08/10 08:27:08;;;;;;;7.63;3.83;;;;;;;21.87;70.37;101244.22;5072304;28;20116;-67
2021/08/10 08:29:35;;;;;;;10.73;4.03;;;;;;;22.12;70.99;101237.78;5076934;28;20052;-65
2021/08/10 08:32:07;;;;;;;9.07;4.05;;;;;;;22.10;70.14;101239.38;5077938;28;20040;-66
2021/08/10 08:34:35;;;;;;;9.35;4.00;;;;;;;22.04;70.26;101238.06;5076948;28;20066;-64
2021/08/10 08:37:04;;;;;;;8.95;4.05;;;;;;;22.09;70.09;101230.13;5067851;28;20048;-67
2021/08/10 08:39:32;;;;;;;7.50;3.75;;;;;;;22.18;69.80;101236.28;5076679;28;20063;-68
2021/08/10 08:42:00;;;;;;;9.80;4.00;;;;;;;22.23;69.43;101232.31;5094665;28;20388;-68
2021/08/10 08:44:34;;;;;;;8.75;4.00;;;;;;;22.20;69.22;101230.28;5069328;28;20052;-66
2021/08/10 08:47:05;;;;;;;9.38;3.60;;;;;;;22.39;69.07;101232.16;5075298;28;20052;-67
2021/08/10 08:49:35;;;;;;;7.53;3.70;;;;;;;22.32;68.21;101230.88;5072876;28;20084;-66
2021/08/10 08:52:05;;;;;;;7.95;3.72;;;;;;;22.46;67.72;101230.25;5074040;28;20044;-67
2021/08/10 08:54:38;;;;;;;8.73;3.90;;;;;;;22.45;68.01;101227.81;5060584;28;20538;-66
2021/08/10 08:57:05;;;;;;;8.93;3.83;;;;;;;22.52;67.50;101230.72;5075765;28;20056;-66
2021/08/10 08:59:34;;;;;;;10.23;3.90;;;;;;;22.66;67.65;101225.31;5089718;28;20052;-67
2021/08/10 09:02:02;;;;;;;11.05;3.83;;;;;;;22.83;66.57;101222.72;5060935;28;20407;-66
2021/08/10 09:04:30;;;;;;;8.80;3.88;;;;;;;23.08;65.89;101223.78;5095611;28;20052;-67
2021/08/10 09:07:01;;;;;;;8.82;3.30;;;;;;;23.07;65.44;101215.75;5089077;28;20059;-66
2021/08/10 09:09:30;;;;;;;6.95;3.25;;;;;;;23.02;64.90;101221.72;5073573;28;20051;-66
2021/08/10 09:12:16;;;;;;;9.37;3.57;;;;;;;23.15;64.57;101228.69;5059632;28;20047;-65
2021/08/10 09:14:52;;;;;;;12.32;3.22;;;;;;;23.17;64.18;101227.09;5067685;28;20293;-67
2021/08/10 09:17:24;;;;;;;7.13;3.17;;;;;;;23.33;63.88;101219.25;5075911;28;20076;-66
2021/08/10 09:20:01;;;;;;;10.27;3.40;;;;;;;23.40;63.56;101221.31;5041749;28;20052;-48
2021/08/10 09:22:32;;;;;;;6.78;3.03;;;;;;;23.64;62.53;101219.94;5062952;28;20055;-46
2021/08/10 09:25:24;;;;;;;10.85;3.45;;;;;;;23.83;61.21;101217.69;5075221;28;20063;-49
2021/08/10 09:28:05;;;;;;;7.20;3.10;;;;;;;23.90;60.53;101219.72;5075890;28;20753;-51
2021/08/10 09:30:34;;;;;;;6.93;3.00;;;;;;;23.94;60.04;101212.91;5060493;28;20043;-49
2021/08/10 09:33:03;;;;;;;11.33;3.03;;;;;;;23.97;60.00;101217.75;5077899;28;20048;-50
2021/08/10 09:35:38;;;;;;;9.88;3.22;;;;;;;23.93;59.36;101216.94;5075610;28;20052;-52
2021/08/10 09:38:16;;;;;;;7.97;2.78;;;;;;;24.12;58.47;101208.25;5072129;28;20498;-52
2021/08/10 09:40:52;;;;;;;4.95;2.65;;;;;;;23.99;58.82;101212.56;5091029;28;20055;-46
2021/08/10 09:43:26;;;;;;;6.28;2.65;;;;;;;23.87;58.92;101212.88;5056903;28;20052;-47
2021/08/10 09:46:19;;;;;;;8.02;2.83;;;;;;;23.88;58.75;101213.69;5057237;28;20052;-51
2021/08/10 09:48:56;;;;;;;9.43;2.60;;;;;;;23.79;59.23;101211.22;5069810;28;20052;-48
2021/08/10 09:51:28;;;;;;;9.05;3.22;;;;;;;23.90;58.61;101202.84;5075261;28;20033;-47
2021/08/10 09:54:10;;;;;;;10.27;2.97;;;;;;;23.85;58.26;101201.19;5072690;28;20055;-45
2021/08/10 09:56:44;;;;;;;10.40;3.10;;;;;;;23.87;57.87;101201.59;5076833;28;20044;-47
2021/08/10 09:59:14;;;;;;;10.63;3.50;;;;;;;24.13;56.90;101200.63;5075094;28;20043;-50
2021/08/10 10:01:45;;;;;;;9.82;3.00;;;;;;;24.08;57.07;101203.78;5053797;28;20055;-51
2021/08/10 10:04:16;;;;;;;7.40;2.90;;;;;;;24.53;55.34;101211.66;5059444;28;20052;-49
2021/08/10 10:07:09;;;;;;;6.30;3.08;;;;;;;24.07;56.74;101200.19;5058169;28;20068;-47
2021/08/10 10:09:37;;;;;;;7.50;2.90;;;;;;;23.89;57.55;101213.28;5091304;28;20059;-50
2021/08/10 10:12:05;;;;;;;9.65;2.97;;;;;;;23.94;56.32;101214.91;5094812;28;20055;-50
2021/08/10 10:14:33;;;;;;;7.82;2.70;;;;;;;23.79;57.75;101205.59;5056858;28;20056;-47
2021/08/10 10:17:02;;;;;;;6.28;3.05;;;;;;;23.89;57.35;101209.66;5094594;28;20522;-50
2021/08/10 10:19:30;;;;;;;6.82;2.80;;;;;;;24.02;56.83;101213.81;5094713;28;20083;-50
2021/08/10 10:21:59;;;;;;;8.60;2.90;;;;;;;24.25;56.21;101211.53;5076832;28;20055;-50
2021/08/10 10:24:26;;;;;;;9.68;2.85;;;;;;;24.29;55.68;101213.16;5094812;28;20067;-46
2021/08/10 10:26:59;;;;;;;6.88;3.25;;;;;;;24.10;54.10;101204.19;5094425;28;20059;-49
2021/08/10 10:29:27;;;;;;;8.85;3.03;;;;;;;24.02;56.38;101211.00;5094833;28;20059;-51
2021/08/10 10:31:54;;;;;;;6.25;2.90;;;;;;;24.06;55.74;101203.38;5094463;28;20044;-48
2021/08/10 10:34:23;;;;;;;5.60;2.83;;;;;;;24.21;55.60;101200.25;5090162;28;20067;-49
2021/08/10 10:36:51;;;;;;;7.18;3.22;;;;;;;23.96;56.49;101199.25;5093791;28;20039;-46
2021/08/10 10:39:39;;;;;;;11.93;3.00;;;;;;;24.25;55.34;101198.25;5074864;28;20402;-52
2021/08/10 10:42:13;;;;;;;8.98;3.33;;;;;;;24.02;56.58;101202.56;5076220;28;20048;-48
2021/08/10 10:44:51;;;;;;;8.07;3.00;;;;;;;24.03;56.19;101198.53;5094379;28;20044;-49
2021/08/10 10:47:22;;;;;;;8.68;3.28;;;;;;;24.28;55.50;101191.84;5076829;28;20513;-51
2021/08/10 10:49:56;;;;;;;6.95;3.00;;;;;;;24.42;55.10;101189.09;5094119;28;20055;-48
2021/08/10 10:52:31;;;;;;;7.35;2.75;;;;;;;24.75;54.37;101187.22;5076340;28;20492;-48
2021/08/10 10:54:59;;;;;;;12.65;4.00;;;;;;;24.86;53.90;101186.03;5094358;28;20052;-50
2021/08/10 10:57:29;;;;;;;7.50;3.15;;;;;;;24.98;53.26;101188.50;5093808;28;20051;-53
2021/08/10 11:00:12;;;;;;;5.38;2.72;;;;;;;24.85;53.49;101187.25;5094553;28;20059;-51
2021/08/10 11:02:40;;;;;;;5.95;2.72;;;;;;;24.90;52.93;101189.69;5094225;28;20040;-50
2021/08/10 11:05:18;;;;;;;8.50;3.13;;;;;;;24.91;53.22;101184.84;5052744;28;20040;-51
2021/08/10 11:07:47;;;;;;;9.07;2.90;;;;;;;24.87;52.03;101182.03;5092210;28;20060;-51
2021/08/10 11:10:38;;;;;;;7.03;3.10;;;;;;;24.55;53.72;101185.94;5094209;28;20056;-49
2021/08/10 11:13:17;;;;;;;7.07;2.88;;;;;;;24.37;54.24;101183.81;5080705;28;20048;-51
2021/08/10 11:15:44;;;;;;;6.47;2.72;;;;;;;24.48;53.68;101181.88;5092902;28;20056;-50
2021/08/10 11:18:11;;;;;;;5.78;3.00;;;;;;;24.58;53.20;101180.31;5093896;28;20601;-50
2021/08/10 11:20:43;;;;;;;7.50;3.92;;;;;;;24.96;52.08;101181.66;5093020;28;20056;-49
2021/08/10 11:23:16;;;;;;;6.38;3.25;;;;;;;25.07;50.86;101171.22;5093831;28;20059;-48
2021/08/10 11:25:44;;;;;;;7.88;2.70;;;;;;;24.75;51.01;101178.78;5093669;28;20051;-49
2021/08/10 11:28:31;;;;;;;8.82;3.10;;;;;;;24.86;52.04;101188.06;5093533;28;20082;-49
2021/08/10 11:31:06;;;;;;;4.70;2.35;;;;;;;25.15;51.28;101186.91;5093808;28;20070;-48
2021/08/10 11:33:35;;;;;;;7.30;3.08;;;;;;;24.64;50.60;101187.16;5058977;28;20056;-48
2021/08/10 11:38:45;;;;;;;9.23;4.10;;;;;;;24.70;51.30;101196.88;5091905;28;20380;-48
2021/08/10 11:41:32;;;;;;;4.90;2.90;;;;;;;24.77;52.57;101188.47;5087791;28;20051;-47
2021/08/10 11:44:02;;;;;;;9.40;3.67;;;;;;;24.92;51.79;101186.47;5092058;28;20052;-46